sensor_id;sensor_type;location;lat;lon;timestamp;temperature;humidity
19970;DHT22;10146;47.754;9.566;2023-08-12T00:00:29;18.00;99.90
19970;DHT22;10146;47.754;9.566;2023-08-12T00:02:55;18.00;99.90
19970;DHT22;10146;47.754;9.566;2023-08-12T00:05:21;18.00;99.90
19970;DHT22;10146;47.754;9.566;2023-08-12T00:07:48;18.00;99.90
19970;DHT22;10146;47.754;9.566;2023-08-12T00:10:14;18.00;99.90
19970;DHT22;10146;47.754;9.566;2023-08-12T00:12:40;18.00;99.90
19970;DHT22;10146;47.754;9.566;2023-08-12T00:15:07;17.90;99.90
19970;DHT22;10146;47.754;9.566;2023-08-12T00:17:34;17.90;99.90
19970;DHT22;10146;47.754;9.566;2023-08-12T00:20:01;17.90;99.90
19970;DHT22;10146;47.754;9.566;2023-08-12T00:22:30;17.90;99.90
19970;DHT22;10146;47.754;9.566;2023-08-12T00:24:56;17.90;99.90
19970;DHT22;10146;47.754;9.566;2023-08-12T00:27:22;17.80;99.90
19970;DHT22;10146;47.754;9.566;2023-08-12T00:29:48;17.70;99.90
19970;DHT22;10146;47.754;9.566;2023-08-12T00:32:14;17.70;99.90
19970;DHT22;10146;47.754;9.566;2023-08-12T00:34:39;17.70;99.90
19970;DHT22;10146;47.754;9.566;2023-08-12T00:37:05;17.70;99.90
19970;DHT22;10146;47.754;9.566;2023-08-12T00:39:30;17.70;99.90
19970;DHT22;10146;47.754;9.566;2023-08-12T00:41:56;17.70;99.90
19970;DHT22;10146;47.754;9.566;2023-08-12T00:44:22;17.70;99.90
19970;DHT22;10146;47.754;9.566;2023-08-12T00:46:48;17.60;99.90
19970;DHT22;10146;47.754;9.566;2023-08-12T00:49:14;17.60;99.90
19970;DHT22;10146;47.754;9.566;2023-08-12T00:51:41;17.60;99.90
19970;DHT22;10146;47.754;9.566;2023-08-12T00:54:08;17.50;99.90
19970;DHT22;10146;47.754;9.566;2023-08-12T00:56:36;17.50;99.90
19970;DHT22;10146;47.754;9.566;2023-08-12T00:59:05;17.40;99.90
19970;DHT22;10146;47.754;9.566;2023-08-12T01:01:32;17.50;99.90
19970;DHT22;10146;47.754;9.566;2023-08-12T01:03:59;17.40;99.90
19970;DHT22;10146;47.754;9.566;2023-08-12T01:06:24;17.50;99.90
19970;DHT22;10146;47.754;9.566;2023-08-12T01:08:50;17.40;99.90
19970;DHT22;10146;47.754;9.566;2023-08-12T01:11:21;17.40;99.90
19970;DHT22;10146;47.754;9.566;2023-08-12T01:14:08;17.40;99.90
19970;DHT22;10146;47.754;9.566;2023-08-12T01:16:39;17.30;99.90
19970;DHT22;10146;47.754;9.566;2023-08-12T01:19:06;17.30;99.90
19970;DHT22;10146;47.754;9.566;2023-08-12T01:21:38;17.20;99.90
19970;DHT22;10146;47.754;9.566;2023-08-12T01:24:06;17.20;99.90
19970;DHT22;10146;47.754;9.566;2023-08-12T01:26:32;17.20;99.90
19970;DHT22;10146;47.754;9.566;2023-08-12T01:28:58;17.20;99.90
19970;DHT22;10146;47.754;9.566;2023-08-12T01:31:32;17.30;99.90
19970;DHT22;10146;47.754;9.566;2023-08-12T01:34:20;17.30;99.90
19970;DHT22;10146;47.754;9.566;2023-08-12T01:36:54;17.30;99.90
19970;DHT22;10146;47.754;9.566;2023-08-12T01:39:22;17.30;99.90
19970;DHT22;10146;47.754;9.566;2023-08-12T01:41:50;17.20;99.90
19970;DHT22;10146;47.754;9.566;2023-08-12T01:44:16;17.20;99.90
19970;DHT22;10146;47.754;9.566;2023-08-12T01:46:44;17.20;99.90
19970;DHT22;10146;47.754;9.566;2023-08-12T01:49:09;17.10;99.90
19970;DHT22;10146;47.754;9.566;2023-08-12T01:51:35;17.10;99.90
19970;DHT22;10146;47.754;9.566;2023-08-12T01:54:00;17.10;99.90
19970;DHT22;10146;47.754;9.566;2023-08-12T01:56:26;17.10;99.90
19970;DHT22;10146;47.754;9.566;2023-08-12T01:58:51;17.10;99.90
19970;DHT22;10146;47.754;9.566;2023-08-12T02:01:17;17.10;99.90
19970;DHT22;10146;47.754;9.566;2023-08-12T02:03:43;17.10;99.90
19970;DHT22;10146;47.754;9.566;2023-08-12T02:06:08;17.10;99.90
19970;DHT22;10146;47.754;9.566;2023-08-12T02:08:34;17.00;99.90
19970;DHT22;10146;47.754;9.566;2023-08-12T02:10:59;17.00;99.90
19970;DHT22;10146;47.754;9.566;2023-08-12T02:13:25;16.90;99.90
19970;DHT22;10146;47.754;9.566;2023-08-12T02:15:50;16.80;99.90
19970;DHT22;10146;47.754;9.566;2023-08-12T02:18:16;16.80;99.90
19970;DHT22;10146;47.754;9.566;2023-08-12T02:20:42;16.80;99.90
19970;DHT22;10146;47.754;9.566;2023-08-12T02:23:07;16.80;99.90
19970;DHT22;10146;47.754;9.566;2023-08-12T02:25:33;16.80;99.90
19970;DHT22;10146;47.754;9.566;2023-08-12T02:27:58;16.80;99.90
19970;DHT22;10146;47.754;9.566;2023-08-12T02:30:24;16.80;99.90
19970;DHT22;10146;47.754;9.566;2023-08-12T02:32:49;16.70;99.90
19970;DHT22;10146;47.754;9.566;2023-08-12T02:35:17;16.70;99.90
19970;DHT22;10146;47.754;9.566;2023-08-12T02:37:43;16.70;99.90
19970;DHT22;10146;47.754;9.566;2023-08-12T02:40:09;16.70;99.90
19970;DHT22;10146;47.754;9.566;2023-08-12T02:42:46;16.70;99.90
19970;DHT22;10146;47.754;9.566;2023-08-12T02:45:11;16.70;99.90
19970;DHT22;10146;47.754;9.566;2023-08-12T02:47:37;16.70;99.90
19970;DHT22;10146;47.754;9.566;2023-08-12T02:50:03;16.70;99.90
19970;DHT22;10146;47.754;9.566;2023-08-12T02:52:28;16.60;99.90
19970;DHT22;10146;47.754;9.566;2023-08-12T02:54:54;16.70;99.90
19970;DHT22;10146;47.754;9.566;2023-08-12T02:57:21;16.60;99.90
19970;DHT22;10146;47.754;9.566;2023-08-12T02:59:47;16.60;99.90
19970;DHT22;10146;47.754;9.566;2023-08-12T03:02:12;16.60;99.90
19970;DHT22;10146;47.754;9.566;2023-08-12T03:04:38;16.60;99.90
19970;DHT22;10146;47.754;9.566;2023-08-12T03:07:04;16.60;99.90
19970;DHT22;10146;47.754;9.566;2023-08-12T03:09:29;16.60;99.90
19970;DHT22;10146;47.754;9.566;2023-08-12T03:11:55;16.50;99.90
19970;DHT22;10146;47.754;9.566;2023-08-12T03:14:20;16.50;99.90
19970;DHT22;10146;47.754;9.566;2023-08-12T03:16:47;16.50;99.90
19970;DHT22;10146;47.754;9.566;2023-08-12T03:19:12;16.50;99.90
19970;DHT22;10146;47.754;9.566;2023-08-12T03:21:38;16.50;99.90
19970;DHT22;10146;47.754;9.566;2023-08-12T03:24:04;16.50;99.90
19970;DHT22;10146;47.754;9.566;2023-08-12T03:26:30;16.40;99.90
19970;DHT22;10146;47.754;9.566;2023-08-12T03:28:55;16.50;99.90
19970;DHT22;10146;47.754;9.566;2023-08-12T03:31:21;16.50;99.90
19970;DHT22;10146;47.754;9.566;2023-08-12T03:33:46;16.40;99.90
19970;DHT22;10146;47.754;9.566;2023-08-12T03:36:12;16.50;99.90
19970;DHT22;10146;47.754;9.566;2023-08-12T03:38:37;16.50;99.90
19970;DHT22;10146;47.754;9.566;2023-08-12T03:41:03;16.50;99.90
19970;DHT22;10146;47.754;9.566;2023-08-12T03:43:29;16.40;99.90
19970;DHT22;10146;47.754;9.566;2023-08-12T03:45:54;16.40;99.90
19970;DHT22;10146;47.754;9.566;2023-08-12T03:48:20;16.40;99.90
19970;DHT22;10146;47.754;9.566;2023-08-12T03:50:46;16.40;99.90
19970;DHT22;10146;47.754;9.566;2023-08-12T03:53:12;16.40;99.90
19970;DHT22;10146;47.754;9.566;2023-08-12T03:55:38;16.50;99.90
19970;DHT22;10146;47.754;9.566;2023-08-12T03:58:04;16.50;99.90
19970;DHT22;10146;47.754;9.566;2023-08-12T04:00:30;16.50;99.90
19970;DHT22;10146;47.754;9.566;2023-08-12T04:02:56;16.60;99.90
19970;DHT22;10146;47.754;9.566;2023-08-12T04:05:21;16.50;99.90
19970;DHT22;10146;47.754;9.566;2023-08-12T04:07:47;16.50;99.90
19970;DHT22;10146;47.754;9.566;2023-08-12T04:10:13;16.60;99.90
19970;DHT22;10146;47.754;9.566;2023-08-12T04:12:40;16.50;99.90
19970;DHT22;10146;47.754;9.566;2023-08-12T04:15:06;16.50;99.90
19970;DHT22;10146;47.754;9.566;2023-08-12T04:17:32;16.50;99.90
19970;DHT22;10146;47.754;9.566;2023-08-12T04:19:58;16.60;99.90
19970;DHT22;10146;47.754;9.566;2023-08-12T04:22:23;16.60;99.90
19970;DHT22;10146;47.754;9.566;2023-08-12T04:24:49;16.60;99.90
19970;DHT22;10146;47.754;9.566;2023-08-12T04:27:14;16.70;99.90
19970;DHT22;10146;47.754;9.566;2023-08-12T04:29:42;16.70;99.90
19970;DHT22;10146;47.754;9.566;2023-08-12T04:32:07;16.70;99.90
19970;DHT22;10146;47.754;9.566;2023-08-12T04:34:33;16.80;99.90
19970;DHT22;10146;47.754;9.566;2023-08-12T04:36:59;16.80;99.90
19970;DHT22;10146;47.754;9.566;2023-08-12T04:39:24;16.90;99.90
19970;DHT22;10146;47.754;9.566;2023-08-12T04:41:50;16.90;99.90
19970;DHT22;10146;47.754;9.566;2023-08-12T04:44:16;16.90;99.90
19970;DHT22;10146;47.754;9.566;2023-08-12T04:46:42;16.90;99.90
19970;DHT22;10146;47.754;9.566;2023-08-12T04:49:07;16.90;99.90
19970;DHT22;10146;47.754;9.566;2023-08-12T04:51:33;16.90;99.90
19970;DHT22;10146;47.754;9.566;2023-08-12T04:53:59;17.00;99.90
19970;DHT22;10146;47.754;9.566;2023-08-12T04:56:27;17.00;99.90
19970;DHT22;10146;47.754;9.566;2023-08-12T04:58:54;17.00;99.90
19970;DHT22;10146;47.754;9.566;2023-08-12T05:01:20;17.10;99.90
19970;DHT22;10146;47.754;9.566;2023-08-12T05:03:45;17.10;99.90
19970;DHT22;10146;47.754;9.566;2023-08-12T05:06:11;17.20;99.90
19970;DHT22;10146;47.754;9.566;2023-08-12T05:08:37;17.20;99.90
19970;DHT22;10146;47.754;9.566;2023-08-12T05:11:02;17.20;99.90
19970;DHT22;10146;47.754;9.566;2023-08-12T05:13:28;17.30;99.90
19970;DHT22;10146;47.754;9.566;2023-08-12T05:15:54;17.30;99.90
19970;DHT22;10146;47.754;9.566;2023-08-12T05:18:21;17.30;99.90
19970;DHT22;10146;47.754;9.566;2023-08-12T05:20:49;17.30;99.90
19970;DHT22;10146;47.754;9.566;2023-08-12T05:23:16;17.40;99.90
19970;DHT22;10146;47.754;9.566;2023-08-12T05:25:42;17.40;99.90
19970;DHT22;10146;47.754;9.566;2023-08-12T05:28:07;17.50;99.90
19970;DHT22;10146;47.754;9.566;2023-08-12T05:30:33;17.50;99.90
19970;DHT22;10146;47.754;9.566;2023-08-12T05:32:59;17.60;99.90
19970;DHT22;10146;47.754;9.566;2023-08-12T05:35:25;17.60;99.90
19970;DHT22;10146;47.754;9.566;2023-08-12T05:37:50;17.70;99.90
19970;DHT22;10146;47.754;9.566;2023-08-12T05:40:16;17.80;99.90
19970;DHT22;10146;47.754;9.566;2023-08-12T05:42:41;17.90;99.90
19970;DHT22;10146;47.754;9.566;2023-08-12T05:45:07;18.00;99.90
19970;DHT22;10146;47.754;9.566;2023-08-12T05:47:33;18.00;99.90
19970;DHT22;10146;47.754;9.566;2023-08-12T05:49:59;18.10;99.90
19970;DHT22;10146;47.754;9.566;2023-08-12T05:52:24;18.20;99.90
19970;DHT22;10146;47.754;9.566;2023-08-12T05:54:50;18.30;99.90
19970;DHT22;10146;47.754;9.566;2023-08-12T05:57:16;18.40;99.90
19970;DHT22;10146;47.754;9.566;2023-08-12T05:59:41;18.40;99.90
19970;DHT22;10146;47.754;9.566;2023-08-12T06:02:07;18.50;99.90
19970;DHT22;10146;47.754;9.566;2023-08-12T06:04:33;18.50;99.90
19970;DHT22;10146;47.754;9.566;2023-08-12T06:06:58;18.60;99.90
19970;DHT22;10146;47.754;9.566;2023-08-12T06:09:24;18.70;99.90
19970;DHT22;10146;47.754;9.566;2023-08-12T06:11:49;18.70;99.90
19970;DHT22;10146;47.754;9.566;2023-08-12T06:14:15;18.70;99.90
19970;DHT22;10146;47.754;9.566;2023-08-12T06:16:40;18.80;99.90
19970;DHT22;10146;47.754;9.566;2023-08-12T06:19:06;18.80;99.90
19970;DHT22;10146;47.754;9.566;2023-08-12T06:21:32;18.90;99.90
19970;DHT22;10146;47.754;9.566;2023-08-12T06:23:57;18.90;99.90
19970;DHT22;10146;47.754;9.566;2023-08-12T06:26:23;19.00;99.90
19970;DHT22;10146;47.754;9.566;2023-08-12T06:28:48;19.00;99.90
19970;DHT22;10146;47.754;9.566;2023-08-12T06:31:14;19.10;99.90
19970;DHT22;10146;47.754;9.566;2023-08-12T06:33:40;19.20;99.90
19970;DHT22;10146;47.754;9.566;2023-08-12T06:36:06;19.20;99.90
19970;DHT22;10146;47.754;9.566;2023-08-12T06:38:32;19.30;99.90
19970;DHT22;10146;47.754;9.566;2023-08-12T06:40:57;19.40;99.90
19970;DHT22;10146;47.754;9.566;2023-08-12T06:43:23;19.40;99.90
19970;DHT22;10146;47.754;9.566;2023-08-12T06:45:48;19.40;99.90
19970;DHT22;10146;47.754;9.566;2023-08-12T06:48:14;19.50;99.90
19970;DHT22;10146;47.754;9.566;2023-08-12T06:50:39;19.60;99.90
19970;DHT22;10146;47.754;9.566;2023-08-12T06:53:05;19.60;99.90
19970;DHT22;10146;47.754;9.566;2023-08-12T06:55:31;19.60;99.90
19970;DHT22;10146;47.754;9.566;2023-08-12T06:57:56;19.60;99.90
19970;DHT22;10146;47.754;9.566;2023-08-12T07:00:22;19.60;99.90
19970;DHT22;10146;47.754;9.566;2023-08-12T07:02:47;19.80;99.90
19970;DHT22;10146;47.754;9.566;2023-08-12T07:05:13;19.90;99.90
19970;DHT22;10146;47.754;9.566;2023-08-12T07:07:39;20.00;99.90
19970;DHT22;10146;47.754;9.566;2023-08-12T07:10:05;20.20;99.90
19970;DHT22;10146;47.754;9.566;2023-08-12T07:12:31;20.30;99.90
19970;DHT22;10146;47.754;9.566;2023-08-12T07:14:58;20.40;99.90
19970;DHT22;10146;47.754;9.566;2023-08-12T07:17:24;20.60;99.90
19970;DHT22;10146;47.754;9.566;2023-08-12T07:19:50;20.80;99.90
19970;DHT22;10146;47.754;9.566;2023-08-12T07:22:15;21.10;99.90
19970;DHT22;10146;47.754;9.566;2023-08-12T07:24:45;21.20;99.90
19970;DHT22;10146;47.754;9.566;2023-08-12T07:27:10;21.40;99.90
19970;DHT22;10146;47.754;9.566;2023-08-12T07:29:36;21.40;99.90
19970;DHT22;10146;47.754;9.566;2023-08-12T07:32:02;21.50;99.90
19970;DHT22;10146;47.754;9.566;2023-08-12T07:34:27;21.70;99.90
19970;DHT22;10146;47.754;9.566;2023-08-12T07:36:53;21.80;99.90
19970;DHT22;10146;47.754;9.566;2023-08-12T07:39:19;21.90;99.90
19970;DHT22;10146;47.754;9.566;2023-08-12T07:41:44;22.00;99.90
19970;DHT22;10146;47.754;9.566;2023-08-12T07:44:10;22.10;99.90
19970;DHT22;10146;47.754;9.566;2023-08-12T07:46:35;22.20;99.90
19970;DHT22;10146;47.754;9.566;2023-08-12T07:49:01;22.30;99.90
19970;DHT22;10146;47.754;9.566;2023-08-12T07:51:27;22.30;99.90
19970;DHT22;10146;47.754;9.566;2023-08-12T07:53:52;22.20;99.90
19970;DHT22;10146;47.754;9.566;2023-08-12T07:56:18;22.10;99.90
19970;DHT22;10146;47.754;9.566;2023-08-12T07:58:44;22.10;99.90
19970;DHT22;10146;47.754;9.566;2023-08-12T08:01:11;22.10;99.90
19970;DHT22;10146;47.754;9.566;2023-08-12T08:03:36;22.20;99.90
19970;DHT22;10146;47.754;9.566;2023-08-12T08:06:02;22.30;99.90
19970;DHT22;10146;47.754;9.566;2023-08-12T08:08:28;22.50;99.90
19970;DHT22;10146;47.754;9.566;2023-08-12T08:10:53;22.60;99.90
19970;DHT22;10146;47.754;9.566;2023-08-12T08:13:19;22.70;99.90
19970;DHT22;10146;47.754;9.566;2023-08-12T08:15:45;22.70;99.90
19970;DHT22;10146;47.754;9.566;2023-08-12T08:18:11;22.80;99.90
19970;DHT22;10146;47.754;9.566;2023-08-12T08:20:36;23.00;99.90
19970;DHT22;10146;47.754;9.566;2023-08-12T08:23:02;23.20;99.90
19970;DHT22;10146;47.754;9.566;2023-08-12T08:25:28;23.30;99.90
19970;DHT22;10146;47.754;9.566;2023-08-12T08:27:53;23.40;99.90
19970;DHT22;10146;47.754;9.566;2023-08-12T08:30:19;23.60;99.90
19970;DHT22;10146;47.754;9.566;2023-08-12T08:32:44;23.80;99.90
19970;DHT22;10146;47.754;9.566;2023-08-12T08:35:12;23.90;99.90
19970;DHT22;10146;47.754;9.566;2023-08-12T08:37:37;24.10;99.90
19970;DHT22;10146;47.754;9.566;2023-08-12T08:40:03;24.40;99.90
19970;DHT22;10146;47.754;9.566;2023-08-12T08:42:29;24.60;99.90
19970;DHT22;10146;47.754;9.566;2023-08-12T08:44:58;24.70;99.90
19970;DHT22;10146;47.754;9.566;2023-08-12T08:47:27;24.90;99.90
19970;DHT22;10146;47.754;9.566;2023-08-12T08:49:55;25.00;99.90
19970;DHT22;10146;47.754;9.566;2023-08-12T08:52:22;25.20;99.90
19970;DHT22;10146;47.754;9.566;2023-08-12T08:54:48;25.20;99.90
19970;DHT22;10146;47.754;9.566;2023-08-12T08:57:14;25.10;99.90
19970;DHT22;10146;47.754;9.566;2023-08-12T08:59:39;25.10;99.90
19970;DHT22;10146;47.754;9.566;2023-08-12T09:02:07;25.10;99.90
19970;DHT22;10146;47.754;9.566;2023-08-12T09:04:38;25.20;99.90
19970;DHT22;10146;47.754;9.566;2023-08-12T09:07:04;25.50;99.90
19970;DHT22;10146;47.754;9.566;2023-08-12T09:09:31;25.90;99.90
19970;DHT22;10146;47.754;9.566;2023-08-12T09:11:58;26.20;99.90
19970;DHT22;10146;47.754;9.566;2023-08-12T09:14:23;26.50;99.90
19970;DHT22;10146;47.754;9.566;2023-08-12T09:16:49;26.50;99.90
19970;DHT22;10146;47.754;9.566;2023-08-12T09:19:15;26.30;99.90
19970;DHT22;10146;47.754;9.566;2023-08-12T09:21:41;26.10;99.90
19970;DHT22;10146;47.754;9.566;2023-08-12T09:24:07;26.00;99.90
19970;DHT22;10146;47.754;9.566;2023-08-12T09:26:33;25.80;99.90
19970;DHT22;10146;47.754;9.566;2023-08-12T09:28:59;25.70;99.90
19970;DHT22;10146;47.754;9.566;2023-08-12T09:31:30;25.60;99.90
19970;DHT22;10146;47.754;9.566;2023-08-12T09:33:59;25.60;99.90
19970;DHT22;10146;47.754;9.566;2023-08-12T09:36:28;25.50;99.90
19970;DHT22;10146;47.754;9.566;2023-08-12T09:38:56;25.50;99.90
19970;DHT22;10146;47.754;9.566;2023-08-12T09:41:22;25.40;99.90
19970;DHT22;10146;47.754;9.566;2023-08-12T09:43:51;25.50;99.90
19970;DHT22;10146;47.754;9.566;2023-08-12T09:46:18;25.40;99.90
19970;DHT22;10146;47.754;9.566;2023-08-12T09:48:46;25.40;99.90
19970;DHT22;10146;47.754;9.566;2023-08-12T09:51:12;25.60;99.90
19970;DHT22;10146;47.754;9.566;2023-08-12T09:53:37;25.60;99.90
19970;DHT22;10146;47.754;9.566;2023-08-12T09:56:07;25.60;99.90
19970;DHT22;10146;47.754;9.566;2023-08-12T09:58:37;25.90;99.90
19970;DHT22;10146;47.754;9.566;2023-08-12T10:01:06;26.30;99.90
19970;DHT22;10146;47.754;9.566;2023-08-12T10:03:33;26.70;99.90
19970;DHT22;10146;47.754;9.566;2023-08-12T10:06:00;26.90;99.90
19970;DHT22;10146;47.754;9.566;2023-08-12T10:08:27;27.20;99.90
19970;DHT22;10146;47.754;9.566;2023-08-12T10:10:54;27.50;99.90
19970;DHT22;10146;47.754;9.566;2023-08-12T10:13:21;27.80;99.90
19970;DHT22;10146;47.754;9.566;2023-08-12T10:15:48;28.10;99.90
19970;DHT22;10146;47.754;9.566;2023-08-12T10:18:14;28.30;99.90
19970;DHT22;10146;47.754;9.566;2023-08-12T10:20:42;28.30;99.90
19970;DHT22;10146;47.754;9.566;2023-08-12T10:23:13;28.40;99.90
19970;DHT22;10146;47.754;9.566;2023-08-12T10:25:41;28.60;99.90
19970;DHT22;10146;47.754;9.566;2023-08-12T10:28:08;28.70;99.90
19970;DHT22;10146;47.754;9.566;2023-08-12T10:30:34;28.70;99.90
19970;DHT22;10146;47.754;9.566;2023-08-12T10:33:00;28.90;99.90
19970;DHT22;10146;47.754;9.566;2023-08-12T10:35:41;29.00;99.90
19970;DHT22;10146;47.754;9.566;2023-08-12T10:38:07;29.30;99.90
19970;DHT22;10146;47.754;9.566;2023-08-12T10:40:33;29.10;99.90
19970;DHT22;10146;47.754;9.566;2023-08-12T10:42:59;28.80;99.90
19970;DHT22;10146;47.754;9.566;2023-08-12T10:45:44;28.60;99.90
19970;DHT22;10146;47.754;9.566;2023-08-12T10:48:25;28.70;99.90
19970;DHT22;10146;47.754;9.566;2023-08-12T10:50:59;28.70;99.90
19970;DHT22;10146;47.754;9.566;2023-08-12T10:53:32;28.60;99.90
19970;DHT22;10146;47.754;9.566;2023-08-12T10:56:01;28.30;99.90
19970;DHT22;10146;47.754;9.566;2023-08-12T10:58:46;28.30;99.90
19970;DHT22;10146;47.754;9.566;2023-08-12T11:01:18;28.20;99.90
19970;DHT22;10146;47.754;9.566;2023-08-12T11:03:44;28.10;99.90
19970;DHT22;10146;47.754;9.566;2023-08-12T11:06:11;27.90;99.90
19970;DHT22;10146;47.754;9.566;2023-08-12T11:08:36;27.80;99.90
19970;DHT22;10146;47.754;9.566;2023-08-12T11:11:20;27.60;99.90
19970;DHT22;10146;47.754;9.566;2023-08-12T11:13:52;27.50;99.90
19970;DHT22;10146;47.754;9.566;2023-08-12T11:16:18;27.30;99.90
19970;DHT22;10146;47.754;9.566;2023-08-12T11:18:43;27.10;99.90
19970;DHT22;10146;47.754;9.566;2023-08-12T11:21:09;26.90;99.90
19970;DHT22;10146;47.754;9.566;2023-08-12T11:23:36;26.60;99.90
19970;DHT22;10146;47.754;9.566;2023-08-12T11:26:02;26.40;99.90
19970;DHT22;10146;47.754;9.566;2023-08-12T11:28:28;26.30;99.90
19970;DHT22;10146;47.754;9.566;2023-08-12T11:30:54;26.20;99.90
19970;DHT22;10146;47.754;9.566;2023-08-12T11:33:20;26.10;99.90
19970;DHT22;10146;47.754;9.566;2023-08-12T11:35:47;25.90;99.90
19970;DHT22;10146;47.754;9.566;2023-08-12T11:38:12;25.80;99.90
19970;DHT22;10146;47.754;9.566;2023-08-12T11:40:40;25.80;99.90
19970;DHT22;10146;47.754;9.566;2023-08-12T11:43:06;25.70;99.90
19970;DHT22;10146;47.754;9.566;2023-08-12T11:45:31;25.70;99.90
19970;DHT22;10146;47.754;9.566;2023-08-12T11:47:57;25.70;99.90
19970;DHT22;10146;47.754;9.566;2023-08-12T11:50:24;25.80;99.90
19970;DHT22;10146;47.754;9.566;2023-08-12T11:52:52;25.80;99.90
19970;DHT22;10146;47.754;9.566;2023-08-12T11:55:18;25.80;99.90
19970;DHT22;10146;47.754;9.566;2023-08-12T11:57:44;25.60;99.90
19970;DHT22;10146;47.754;9.566;2023-08-12T12:00:13;25.60;99.90
19970;DHT22;10146;47.754;9.566;2023-08-12T12:02:50;25.60;99.90
19970;DHT22;10146;47.754;9.566;2023-08-12T12:05:28;25.90;99.90
19970;DHT22;10146;47.754;9.566;2023-08-12T12:07:55;26.00;99.90
19970;DHT22;10146;47.754;9.566;2023-08-12T12:10:26;26.00;99.90
19970;DHT22;10146;47.754;9.566;2023-08-12T12:12:54;25.90;99.90
19970;DHT22;10146;47.754;9.566;2023-08-12T12:15:20;25.70;99.90
19970;DHT22;10146;47.754;9.566;2023-08-12T12:17:47;25.60;99.90
19970;DHT22;10146;47.754;9.566;2023-08-12T12:20:14;25.50;99.90
19970;DHT22;10146;47.754;9.566;2023-08-12T12:22:42;25.40;99.90
19970;DHT22;10146;47.754;9.566;2023-08-12T12:25:13;25.40;99.90
19970;DHT22;10146;47.754;9.566;2023-08-12T12:27:39;25.40;99.90
19970;DHT22;10146;47.754;9.566;2023-08-12T12:30:09;25.40;99.90
19970;DHT22;10146;47.754;9.566;2023-08-12T12:32:35;25.40;99.90
19970;DHT22;10146;47.754;9.566;2023-08-12T12:35:00;25.40;99.90
19970;DHT22;10146;47.754;9.566;2023-08-12T12:37:27;25.50;99.90
19970;DHT22;10146;47.754;9.566;2023-08-12T12:39:52;25.40;99.90
19970;DHT22;10146;47.754;9.566;2023-08-12T12:42:18;25.40;99.90
19970;DHT22;10146;47.754;9.566;2023-08-12T12:44:43;25.40;99.90
19970;DHT22;10146;47.754;9.566;2023-08-12T12:47:09;25.40;99.90
19970;DHT22;10146;47.754;9.566;2023-08-12T12:49:38;25.40;99.90
19970;DHT22;10146;47.754;9.566;2023-08-12T12:52:03;25.50;99.90
19970;DHT22;10146;47.754;9.566;2023-08-12T12:54:29;25.50;99.90
19970;DHT22;10146;47.754;9.566;2023-08-12T12:56:56;25.60;99.90
19970;DHT22;10146;47.754;9.566;2023-08-12T12:59:22;25.80;99.90
19970;DHT22;10146;47.754;9.566;2023-08-12T13:01:47;25.90;99.90
19970;DHT22;10146;47.754;9.566;2023-08-12T13:04:13;26.20;99.90
19970;DHT22;10146;47.754;9.566;2023-08-12T13:06:38;26.40;99.90
19970;DHT22;10146;47.754;9.566;2023-08-12T13:09:04;26.50;99.90
19970;DHT22;10146;47.754;9.566;2023-08-12T13:11:32;26.70;99.90
19970;DHT22;10146;47.754;9.566;2023-08-12T13:14:00;27.10;99.90
19970;DHT22;10146;47.754;9.566;2023-08-12T13:16:25;27.40;99.90
19970;DHT22;10146;47.754;9.566;2023-08-12T13:18:51;27.80;99.90
19970;DHT22;10146;47.754;9.566;2023-08-12T13:21:16;28.00;99.90
19970;DHT22;10146;47.754;9.566;2023-08-12T13:23:42;28.00;99.90
19970;DHT22;10146;47.754;9.566;2023-08-12T13:26:07;28.10;99.90
19970;DHT22;10146;47.754;9.566;2023-08-12T13:28:33;27.90;99.90
19970;DHT22;10146;47.754;9.566;2023-08-12T13:30:59;27.80;99.90
19970;DHT22;10146;47.754;9.566;2023-08-12T13:33:25;27.70;99.90
19970;DHT22;10146;47.754;9.566;2023-08-12T13:35:50;27.60;99.90
19970;DHT22;10146;47.754;9.566;2023-08-12T13:38:16;27.80;99.90
19970;DHT22;10146;47.754;9.566;2023-08-12T13:40:42;28.00;99.90
19970;DHT22;10146;47.754;9.566;2023-08-12T13:43:07;28.70;99.90
19970;DHT22;10146;47.754;9.566;2023-08-12T13:45:33;29.20;99.90
19970;DHT22;10146;47.754;9.566;2023-08-12T13:47:59;29.40;99.90
19970;DHT22;10146;47.754;9.566;2023-08-12T13:50:24;29.40;99.90
19970;DHT22;10146;47.754;9.566;2023-08-12T13:52:50;29.30;99.90
19970;DHT22;10146;47.754;9.566;2023-08-12T13:55:16;29.20;99.90
19970;DHT22;10146;47.754;9.566;2023-08-12T13:57:42;29.30;99.90
19970;DHT22;10146;47.754;9.566;2023-08-12T14:00:08;29.40;99.90
19970;DHT22;10146;47.754;9.566;2023-08-12T14:02:36;29.40;99.90
19970;DHT22;10146;47.754;9.566;2023-08-12T14:05:04;29.50;99.90
19970;DHT22;10146;47.754;9.566;2023-08-12T14:07:30;29.80;99.90
19970;DHT22;10146;47.754;9.566;2023-08-12T14:09:56;30.20;99.90
19970;DHT22;10146;47.754;9.566;2023-08-12T14:12:22;30.60;99.90
19970;DHT22;10146;47.754;9.566;2023-08-12T14:14:47;30.60;99.90
19970;DHT22;10146;47.754;9.566;2023-08-12T14:17:14;31.00;99.90
19970;DHT22;10146;47.754;9.566;2023-08-12T14:19:43;31.40;99.90
19970;DHT22;10146;47.754;9.566;2023-08-12T14:22:08;31.50;99.90
19970;DHT22;10146;47.754;9.566;2023-08-12T14:24:34;31.70;99.90
19970;DHT22;10146;47.754;9.566;2023-08-12T14:27:00;31.90;99.90
19970;DHT22;10146;47.754;9.566;2023-08-12T14:29:25;32.10;98.10
19970;DHT22;10146;47.754;9.566;2023-08-12T14:31:52;32.20;96.80
19970;DHT22;10146;47.754;9.566;2023-08-12T14:34:17;32.40;96.20
19970;DHT22;10146;47.754;9.566;2023-08-12T14:36:43;32.60;94.40
19970;DHT22;10146;47.754;9.566;2023-08-12T14:39:08;32.70;92.80
19970;DHT22;10146;47.754;9.566;2023-08-12T14:41:34;32.90;90.50
19970;DHT22;10146;47.754;9.566;2023-08-12T14:43:59;32.90;90.70
19970;DHT22;10146;47.754;9.566;2023-08-12T14:46:25;33.20;90.90
19970;DHT22;10146;47.754;9.566;2023-08-12T14:48:51;33.20;88.10
19970;DHT22;10146;47.754;9.566;2023-08-12T14:51:18;33.10;86.70
19970;DHT22;10146;47.754;9.566;2023-08-12T14:53:44;32.90;87.40
19970;DHT22;10146;47.754;9.566;2023-08-12T14:56:10;33.10;86.90
19970;DHT22;10146;47.754;9.566;2023-08-12T14:58:35;33.30;85.90
19970;DHT22;10146;47.754;9.566;2023-08-12T15:01:01;33.30;86.30
19970;DHT22;10146;47.754;9.566;2023-08-12T15:03:28;33.00;85.50
19970;DHT22;10146;47.754;9.566;2023-08-12T15:06:04;32.70;85.30
19970;DHT22;10146;47.754;9.566;2023-08-12T15:08:30;32.50;88.00
19970;DHT22;10146;47.754;9.566;2023-08-12T15:10:56;32.80;87.90
19970;DHT22;10146;47.754;9.566;2023-08-12T15:13:22;33.20;85.20
19970;DHT22;10146;47.754;9.566;2023-08-12T15:15:52;33.30;85.10
19970;DHT22;10146;47.754;9.566;2023-08-12T15:18:18;33.30;85.60
19970;DHT22;10146;47.754;9.566;2023-08-12T15:20:44;33.60;82.90
19970;DHT22;10146;47.754;9.566;2023-08-12T15:23:10;33.90;81.60
19970;DHT22;10146;47.754;9.566;2023-08-12T15:25:36;34.00;82.30